ENNA METAR and TAF weather

Enter ICAO airport designator
Station Type Date Time Source
ENNA METAR 2022/05/24 12:50 UTC NOAA

ENNA 241250Z 20019KT CAVOK 19/01 Q1009 RMK WIND 1800FT 20025KT


Station Type Date Time Source
ENNA Decoded METAR 2022/05/24 12:50 UTC NOAA

Banak, Norway (ENNA) 70-04N 024-59E 8M
May 24, 2022 - 08:50 AM EDT / 2022.05.24 1250 UTC
Wind: from the SSW (200 degrees) at 22 MPH (19 KT):0
Visibility: greater than 7 mile(s):0
Temperature: 66 F (19 C)
Dew Point: 33 F (1 C)
Relative Humidity: 29%
Pressure (altimeter): 29.80 in. Hg (1009 hPa)
ob: ENNA 241250Z 20019KT CAVOK 19/01 Q1009 RMK WIND 1800FT 20025KT
cycle: 13

Station Type Date Time Source
ENNA TAF 2022/05/24 12:57 UTC NOAA

TAF TAF ENNA 241100Z 2412/2512 18015KT CAVOK PROB40
TEMPO 2412/2415 20020G30KT
TEMPO 2505/2512 20020G30KT

Example: see airport list